Latest Weather Observations for Point Perpendicular

IDN60801

Issued at 12:03 pm EST Friday 28 April 2017 (issued every 30 minutes, with the page automatically refreshed every 10 minutes)

About weather observations | Map of weather stations | Latest weather observations for NSW | Other Formats
Station Details ID: 068151 Name: POINT PERPENDICULAR AWS Lat: -35.09 Lon: 150.80 Height: 85.0 m
Data from the previous 72 hours. | See also: Recent months at Point Perpendicular
Date/Time
EST
Temp
°C
App
Temp
°C
Dew
Point
°C
Rel
Hum
%
Delta-T
°C
Wind Press
QNH
hPa
Press
MSL
hPa
Rain since
9am
mm
Dir  Spd
km/h
Gust
km/h
Spd
kts
Gust
kts
28/12:00pm 16.5 13.8 9.0 61 3.9 SW 13 20 7 11 1022.0 1021.9 -
28/11:30am 16.1 12.9 8.3 60 4.0 SSW 15 22 8 12 1022.3 1022.2 0.0
28/11:00am 15.9 12.9 7.7 58 4.1 WSW 13 20 7 11 1022.8 1022.7 0.0
28/10:30am 15.7 12.8 8.0 60 3.9 WSW 13 22 7 12 1022.8 1022.7 0.0
28/10:00am 15.2 12.7 8.2 63 3.5 WSW 11 19 6 10 1022.9 1022.8 0.0
28/09:30am 14.8 11.9 8.1 64 3.4 SW 13 22 7 12 1022.8 1022.7 0.0
28/09:00am 14.6 13.0 7.9 64 3.3 W 6 13 3 7 1022.7 1022.6 0.0
28/08:30am 14.1 12.1 7.2 63 3.4 WNW 7 15 4 8 1022.4 1022.3 0.0
28/08:00am 13.6 11.6 7.2 65 3.1 WNW 7 13 4 7 1022.3 1022.2 0.0
28/07:30am 13.3 11.5 7.1 66 3.0 WNW 6 9 3 5 1021.8 1021.6 0.0
28/07:00am 13.1 10.6 6.7 65 3.1 WSW 9 15 5 8 1021.4 1021.2 0.0
28/06:30am 13.2 10.8 7.0 66 3.0 WSW 9 17 5 9 1021.1 1020.9 0.0
28/06:00am 13.3 11.0 7.3 67 2.9 WSW 9 13 5 7 1020.9 1020.7 0.0
28/05:30am 13.5 9.9 6.6 63 3.3 SW 15 24 8 13 1020.6 1020.4 0.0
28/05:00am 13.6 9.9 6.2 61 3.5 SW 15 26 8 14 1020.5 1020.3 0.0
28/04:30am 13.7 10.0 6.3 61 3.6 SW 15 24 8 13 1020.4 1020.2 0.0
28/04:00am 13.7 10.0 6.1 60 3.6 SW 15 26 8 14 1020.3 1020.1 0.0
28/03:30am 13.5 9.4 6.4 62 3.4 SW 17 26 9 14 1020.3 1020.1 0.0
28/03:00am 13.4 8.9 6.3 62 3.4 SW 19 30 10 16 1020.2 1020.0 0.0
28/02:30am 13.3 10.0 6.2 62 3.4 SW 13 24 7 13 1020.1 1019.9 0.0
28/02:00am 14.0 10.4 8.2 68 2.9 SW 17 28 9 15 1019.9 1019.7 0.0
28/01:30am 14.2 9.5 7.7 65 3.2 SW 22 37 12 20 1019.9 1019.7 0.0
28/01:00am 13.4 10.2 6.7 64 3.2 WSW 13 20 7 11 1020.1 1019.9 0.0
28/12:30am 14.2 10.1 7.7 65 3.2 SW 19 33 10 18 1020.1 1019.9 0.0
28/12:00am 14.4 8.6 7.9 65 3.2 SSW 28 44 15 24 1019.6 1019.4 0.0
 
Date/Time
EST
Temp
°C
App
Temp
°C
Dew
Point
°C
Rel
Hum
%
Delta-T
°C
Wind Press
QNH
hPa
Press
MSL
hPa
Rain since
9am
mm
Dir  Spd
km/h
Gust
km/h
Spd
kts
Gust
kts
27/11:41pm 14.4 8.1 7.5 63 3.4 SW 30 48 16 26 1019.6 1019.4 0.0
27/11:30pm 14.3 6.8 6.2 58 3.9 SSW 35 48 19 26 1019.5 1019.3 0.0
27/11:00pm 14.8 7.1 6.9 59 3.9 SSW 37 56 20 30 1019.0 1018.8 0.0
27/10:30pm 14.8 7.1 7.1 60 3.8 SSW 37 56 20 30 1019.1 1018.9 0.0
27/10:07pm 15.0 8.6 7.1 59 3.9 SSW 30 50 16 27 1018.7 1018.5 0.0
27/10:00pm 14.9 8.0 6.5 57 4.1 SSW 32 48 17 26 1018.7 1018.5 0.0
27/09:59pm 15.0 8.6 6.8 58 4.0 SSW 30 48 16 26 1018.6 1018.4 0.0
27/09:30pm 15.2 8.2 7.0 58 4.0 SSW 33 50 18 27 1018.5 1018.3 0.0
27/09:00pm 15.4 8.6 6.9 57 4.2 SSW 32 46 17 25 1018.6 1018.4 0.0
27/08:30pm 15.9 10.0 9.1 64 3.5 SSW 30 48 16 26 1018.2 1018.0 0.0
27/08:19pm 15.8 9.6 7.8 59 4.0 SSW 30 48 16 26 1018.0 1017.8 0.0
27/08:00pm 15.9 9.3 7.9 59 4.0 SSW 32 48 17 26 1018.0 1017.8 0.0
27/07:36pm 16.2 9.6 8.7 61 3.9 SSW 33 52 18 28 1017.8 1017.6 0.0
27/07:30pm 16.1 9.2 7.3 56 4.4 SSW 33 48 18 26 1017.7 1017.5 0.0
27/07:00pm 16.3 9.3 8.5 60 4.0 SSW 35 54 19 29 1017.4 1017.2 0.0
27/06:30pm 16.4 9.4 8.4 59 4.1 SSW 35 54 19 29 1016.8 1016.6 0.0
27/06:00pm 16.6 10.1 6.7 52 4.9 SSW 30 52 16 28 1016.5 1016.3 0.0
27/05:30pm 16.4 9.9 8.1 58 4.2 SSW 32 48 17 26 1016.1 1015.9 0.0
27/05:16pm 16.4 10.2 7.9 57 4.3 SSW 30 48 16 26 1016.1 1015.9 0.0
27/05:00pm 16.4 10.1 7.3 55 4.5 SSW 30 46 16 25 1015.5 1015.3 0.0
27/04:37pm 16.6 10.7 9.1 61 3.9 SSW 30 52 16 28 1015.3 1015.1 0.0
27/04:30pm 16.5 10.2 7.4 55 4.6 SSW 30 46 16 25 1015.4 1015.2 0.0
27/04:00pm 16.7 10.4 7.6 55 4.6 SSW 30 50 16 27 1015.1 1014.9 0.0
27/03:39pm 16.4 9.8 8.6 60 4.0 SSW 33 52 18 28 1014.8 1014.6 0.0
27/03:30pm 16.3 9.6 8.0 58 4.2 SSW 33 50 18 27 1014.6 1014.4 0.0
27/03:23pm 16.3 9.8 8.0 58 4.2 SSW 32 50 17 27 1014.6 1014.4 0.0
27/03:00pm 16.1 10.0 8.1 59 4.1 SSW 30 43 16 23 1014.7 1014.5 0.0
27/02:30pm 16.0 9.4 8.7 62 3.7 SSW 33 52 18 28 1014.3 1014.1 0.0
27/02:12pm 15.8 9.2 7.8 59 4.0 SSW 32 50 17 27 1014.4 1014.2 0.0
27/02:00pm 15.8 8.7 8.1 60 3.9 SSW 35 46 19 25 1014.1 1013.9 0.0
27/01:30pm 15.6 9.0 7.9 60 3.9 SW 32 57 17 31 1014.3 1014.1 0.0
27/01:22pm 15.6 9.0 7.9 60 3.9 SSW 32 57 17 31 1014.7 1014.5 0.0
27/01:00pm 15.5 9.5 8.5 63 3.6 SW 30 46 16 25 1014.6 1014.4 0.0
27/12:35pm 15.2 9.5 8.2 63 3.5 SW 28 46 15 25 1014.7 1014.5 0.0
27/12:30pm 15.2 9.2 8.7 65 3.3 SW 30 44 16 24 1014.8 1014.6 0.0
27/12:17pm 14.9 9.0 7.5 61 3.7 SW 28 46 15 25 1015.0 1014.8 0.0
27/12:00pm 14.8 8.5 7.6 62 3.6 SW 30 46 16 25 1015.1 1014.9 0.0
27/11:30am 14.8 8.6 7.8 63 3.5 SW 30 46 16 25 1015.1 1014.9 0.0
27/11:00am 14.4 7.8 7.7 64 3.3 SW 32 50 17 27 1015.2 1015.0 0.0
27/10:53am 14.5 8.2 7.3 62 3.6 SW 30 50 16 27 1015.3 1015.1 0.0
27/10:30am 14.4 8.7 8.4 67 3.0 SW 28 43 15 23 1015.1 1014.9 0.0
27/10:00am 13.8 8.4 6.4 61 3.6 SW 24 35 13 19 1015.7 1015.5 0.0
27/09:30am 14.0 9.5 6.8 62 3.5 SW 20 33 11 18 1015.7 1015.5 0.0
27/09:00am 13.4 8.6 5.6 59 3.7 SW 20 33 11 18 1015.6 1015.4 5.0
27/08:30am 13.3 8.5 5.5 59 3.7 SW 20 33 11 18 1015.3 1015.1 5.0
27/08:00am 13.2 8.4 5.4 59 3.7 SW 20 32 11 17 1014.9 1014.7 5.0
27/07:30am 12.9 8.2 5.3 60 3.5 SW 19 30 10 16 1014.2 1014.0 5.0
27/07:00am 12.7 7.7 4.7 58 3.7 SW 20 35 11 19 1013.8 1013.6 5.0
27/06:30am 12.9 8.0 5.1 59 3.6 SW 20 35 11 19 1013.1 1012.9 5.0
27/06:00am 12.9 8.0 4.3 56 3.9 SW 19 32 10 17 1013.1 1012.9 5.0
27/05:30am 13.2 8.2 4.6 56 4.0 SW 20 33 11 18 1012.8 1012.6 5.0
27/05:00am 13.3 8.3 4.5 55 4.1 SW 20 33 11 18 1012.3 1012.1 5.0
27/04:30am 13.1 8.8 3.2 51 4.4 SW 15 28 8 15 1012.3 1012.1 5.0
27/04:00am 12.9 9.3 4.8 58 3.7 WSW 13 19 7 10 1012.3 1012.1 5.0
27/03:30am 13.0 10.5 4.9 58 3.8 WSW 7 17 4 9 1012.0 1011.8 5.0
27/03:00am 13.2 9.1 4.6 56 4.0 WSW 15 22 8 12 1012.0 1011.8 5.0
27/02:30am 13.5 9.3 3.8 52 4.4 SW 15 28 8 15 1012.0 1011.8 5.0
27/02:00am 13.5 7.9 3.6 51 4.5 SW 22 32 12 17 1012.0 1011.8 5.0
27/01:30am 13.8 8.8 4.4 53 4.3 SW 20 32 11 17 1011.8 1011.6 5.0
27/01:00am 13.9 9.0 4.2 52 4.5 SW 19 35 10 19 1012.0 1011.8 5.0
27/12:30am 14.0 8.0 3.2 48 4.9 SW 24 39 13 21 1011.5 1011.2 5.0
27/12:00am 14.2 8.7 3.9 50 4.7 SW 22 37 12 20 1011.2 1010.9 5.0
 
Date/Time
EST
Temp
°C
App
Temp
°C
Dew
Point
°C
Rel
Hum
%
Delta-T
°C
Wind Press
QNH
hPa
Press
MSL
hPa
Rain since
9am
mm
Dir  Spd
km/h
Gust
km/h
Spd
kts
Gust
kts
26/11:30pm 14.5 8.1 5.0 53 4.5 SW 28 48 15 26 1010.5 1010.3 5.0
26/11:23pm 14.7 8.3 5.2 53 4.5 SW 28 48 15 26 1010.7 1010.5 5.0
26/11:00pm 14.5 9.7 5.6 55 4.2 SW 20 32 11 17 1010.7 1010.5 5.0
26/10:30pm 15.0 8.7 7.3 60 3.8 SW 30 44 16 24 1010.2 1010.0 5.0
26/10:00pm 15.3 6.5 3.8 46 5.3 SSW 39 57 21 31 1009.3 1009.1 5.0
26/09:30pm 15.4 7.6 5.0 50 4.9 SSW 35 56 19 30 1008.7 1008.5 5.0
26/09:00pm 15.7 8.5 7.5 58 4.1 SW 35 56 19 30 1008.8 1008.6 5.0
26/08:35pm 15.9 9.7 7.9 59 4.0 SW 30 52 16 28 1008.0 1007.8 5.0
26/08:30pm 15.5 10.4 7.5 59 4.0 SW 24 43 13 23 1008.4 1008.2 5.0
26/08:00pm 15.2 11.1 11.4 78 2.0 SW 24 37 13 20 1008.5 1008.3 5.0
26/07:30pm 15.1 11.1 10.5 74 2.4 SW 22 39 12 21 1008.1 1007.9 5.0
26/07:00pm 15.3 11.2 11.5 78 2.1 SW 24 35 13 19 1007.6 1007.4 5.0
26/06:30pm 15.3 11.2 12.6 84 1.5 SW 26 43 14 23 1006.8 1006.6 5.0
26/06:09pm 15.7 9.4 11.1 74 2.5 SSW 35 54 19 29 1005.3 1005.1 5.0
26/06:00pm 15.4 9.1 12.2 81 1.8 SSW 37 52 20 28 1005.3 1005.1 5.0
26/05:40pm 14.8 9.0 11.4 80 1.8 SSW 33 52 18 28 1004.7 1004.5 5.0
26/05:30pm 15.2 9.7 11.8 80 1.8 SSW 32 46 17 25 1004.6 1004.4 5.0
26/05:06pm 15.3 12.2 12.1 81 1.7 SW 20 41 11 22 1004.5 1004.3 5.0
26/05:00pm 15.8 14.2 11.6 76 2.3 WSW 11 22 6 12 1005.0 1004.8 5.0
26/04:30pm 16.2 14.5 9.8 66 3.4 WNW 9 15 5 8 1003.9 1003.7 5.0
26/04:00pm 16.5 15.3 10.4 67 3.3 WNW 7 17 4 9 1003.5 1003.3 5.0
26/03:30pm 16.3 14.1 9.5 64 3.5 NW 11 17 6 9 1003.6 1003.4 5.0
26/03:00pm 15.8 12.5 11.6 76 2.3 NW 20 28 11 15 1003.9 1003.7 5.0
26/02:30pm 16.8 13.8 10.6 67 3.3 WNW 17 32 9 17 1003.3 1003.1 5.0
26/02:00pm 18.5 17.5 11.1 62 4.1 WSW 7 17 4 9 1003.2 1003.0 5.0
26/01:30pm 18.8 18.1 11.9 64 3.8 WNW 7 17 4 9 1003.0 1002.8 5.0
26/01:00pm 17.6 15.8 12.1 70 3.1 WNW 13 24 7 13 1003.0 1002.8 5.0
26/12:30pm 16.3 14.9 12.1 76 2.3 WNW 11 20 6 11 1003.3 1003.1 5.0
26/12:00pm 15.4 14.8 12.2 81 1.8 W 7 20 4 11 1003.7 1003.5 5.0
26/11:30am 15.1 13.5 11.7 80 1.8 W 11 22 6 12 1004.6 1004.4 4.8
26/11:19am 15.2 12.4 11.2 77 2.1 WNW 17 33 9 18 1004.5 1004.3 2.0
26/11:00am 20.2 17.1 10.3 53 5.4 WNW 17 32 9 17 1004.3 1004.1 0.0
26/10:30am 20.7 19.0 12.4 59 4.7 NW 13 24 7 13 1004.4 1004.2 0.0
26/10:00am 20.3 17.9 12.8 62 4.3 NW 17 24 9 13 1004.8 1004.6 0.0
26/09:30am 19.6 16.8 12.6 64 3.9 NNW 19 28 10 15 1005.0 1004.8 0.0
26/09:00am 18.9 16.2 12.9 68 3.4 NW 19 28 10 15 1005.5 1005.3 0.0
26/08:30am 18.5 16.2 13.1 71 3.1 NNW 17 24 9 13 1005.6 1005.4 0.0
26/08:00am 17.9 16.6 13.8 77 2.3 NNW 13 19 7 10 1005.6 1005.4 0.0
26/07:30am 16.9 15.4 13.2 79 2.1 NNW 13 17 7 9 1005.8 1005.6 0.0
26/07:00am 16.1 14.6 13.2 83 1.6 N 13 15 7 8 1005.6 1005.4 0.0
26/06:30am 16.2 14.3 12.9 81 1.8 NNW 15 17 8 9 1005.7 1005.5 0.0
26/06:00am 16.7 15.2 13.2 80 2.0 NNW 13 15 7 8 1005.7 1005.5 0.0
26/05:30am 17.3 15.8 13.0 76 2.4 NNW 13 19 7 10 1005.7 1005.5 0.0
26/05:00am 17.4 15.7 13.7 79 2.1 NW 15 20 8 11 1005.8 1005.6 0.0
26/04:30am 17.0 15.2 13.3 79 2.1 NNW 15 19 8 10 1005.7 1005.5 0.0
26/04:00am 16.5 14.9 13.8 84 1.5 NNW 15 19 8 10 1005.7 1005.5 0.0
26/03:30am 16.4 14.7 13.5 83 1.6 NNW 15 19 8 10 1005.9 1005.7 0.0
26/03:00am 17.1 14.9 13.4 79 2.1 N 17 20 9 11 1006.0 1005.8 0.0
26/02:30am 18.1 16.3 13.2 73 2.8 NW 15 22 8 12 1006.0 1005.8 0.0
26/02:00am 18.3 16.9 13.4 73 2.8 NW 13 20 7 11 1006.2 1006.0 0.0
26/01:30am 17.9 16.4 13.2 74 2.7 WNW 13 22 7 12 1006.2 1006.0 0.0
26/01:00am 18.3 15.6 13.6 74 2.7 NW 20 26 11 14 1006.2 1006.0 0.0
26/12:30am 17.9 15.2 13.6 76 2.4 NW 20 28 11 15 1006.1 1005.9 0.0
26/12:00am 18.3 16.3 13.8 75 2.6 NW 17 24 9 13 1006.4 1006.2 0.0
 
Date/Time
EST
Temp
°C
App
Temp
°C
Dew
Point
°C
Rel
Hum
%
Delta-T
°C
Wind Press
QNH
hPa
Press
MSL
hPa
Rain since
9am
mm
Dir  Spd
km/h
Gust
km/h
Spd
kts
Gust
kts
25/11:30pm 18.9 17.2 13.5 71 3.1 NW 15 28 8 15 1006.7 1006.5 0.0
25/11:00pm 19.4 18.2 14.0 71 3.1 WNW 13 28 7 15 1006.8 1006.6 0.0
25/10:30pm 19.2 16.4 14.2 73 2.9 NW 22 32 12 17 1006.8 1006.6 0.0
25/10:00pm 19.7 18.6 14.3 71 3.1 NW 13 22 7 12 1007.0 1006.8 0.0
25/09:30pm 19.7 18.4 14.7 73 2.9 NW 15 26 8 14 1007.0 1006.8 0.0
25/09:00pm 19.8 18.5 14.8 73 2.9 NW 15 24 8 13 1007.3 1007.1 0.0
25/08:30pm 19.9 18.1 14.5 71 3.2 NNW 17 22 9 12 1007.4 1007.2 0.0
25/08:00pm 20.1 18.7 14.5 70 3.3 NNW 15 22 8 12 1007.3 1007.1 0.0
25/07:30pm 20.4 19.0 14.5 69 3.5 NNW 15 22 8 12 1007.3 1007.1 0.0
25/07:00pm 20.6 18.9 14.7 69 3.5 NNW 17 30 9 16 1007.3 1007.1 0.0
25/06:30pm 20.7 19.4 14.8 69 3.5 NNW 15 20 8 11 1007.3 1007.1 0.0
25/06:00pm 21.1 20.3 15.0 68 3.6 NNW 13 19 7 10 1007.1 1006.9 0.0
25/05:30pm 21.2 19.3 15.1 68 3.6 NNW 19 30 10 16 1006.7 1006.5 0.0
25/05:00pm 21.6 20.1 15.4 68 3.7 NNW 17 28 9 15 1006.4 1006.2 0.0
25/04:30pm 21.7 21.2 15.8 69 3.5 NNW 13 24 7 13 1006.7 1006.5 0.0
25/04:00pm 21.7 21.2 15.8 69 3.6 NNW 13 19 7 10 1006.9 1006.7 0.0
25/03:30pm 21.0 20.2 16.0 73 3.0 NNW 15 24 8 13 1006.9 1006.7 0.0
25/03:00pm 20.2 19.6 16.6 80 2.2 N 15 20 8 11 1007.0 1006.8 0.0
25/02:30pm 20.3 18.9 16.9 81 2.1 NNW 20 28 11 15 1007.3 1007.1 0.0
25/02:00pm 19.5 19.9 18.2 92 0.8 N 13 19 7 10 1007.6 1007.4 0.0
25/01:30pm 20.1 19.6 17.7 86 1.5 N 17 24 9 13 1008.0 1007.8 0.0
25/01:00pm 21.0 19.6 17.0 78 2.5 N 20 30 11 16 1008.4 1008.2 0.0
25/12:30pm 21.5 19.1 17.3 77 2.6 N 26 37 14 20 1008.4 1008.2 0.0

Other Formats:

Comma delimited format used in spreadsheet applications
http://www.bom.gov.au/fwo/IDN60801/IDN60801.95940.axf

JavaScript Object Notation format (JSON) in row-major order
http://www.bom.gov.au/fwo/IDN60801/IDN60801.95940.json